sensor_id;sensor_type;location;lat;lon;timestamp;temperature;humidity
41664;DHT22;27353;50.906;7.248;2024-01-10T00:01:58;-3.40;91.50
41664;DHT22;27353;50.906;7.248;2024-01-10T00:04:24;-3.40;91.40
41664;DHT22;27353;50.906;7.248;2024-01-10T00:06:50;-3.40;91.10
41664;DHT22;27353;50.906;7.248;2024-01-10T00:09:15;-3.40;91.20
41664;DHT22;27353;50.906;7.248;2024-01-10T00:11:41;-3.40;91.20
41664;DHT22;27353;50.906;7.248;2024-01-10T00:14:06;-3.40;91.70
41664;DHT22;27353;50.906;7.248;2024-01-10T00:16:32;-3.40;91.40
41664;DHT22;27353;50.906;7.248;2024-01-10T00:18:58;-3.40;90.80
41664;DHT22;27353;50.906;7.248;2024-01-10T00:21:23;-3.40;90.50
41664;DHT22;27353;50.906;7.248;2024-01-10T00:23:49;-3.40;90.70
41664;DHT22;27353;50.906;7.248;2024-01-10T00:26:14;-3.50;91.60
41664;DHT22;27353;50.906;7.248;2024-01-10T00:28:41;-3.50;90.90
41664;DHT22;27353;50.906;7.248;2024-01-10T00:31:06;-3.50;91.30
41664;DHT22;27353;50.906;7.248;2024-01-10T00:33:32;-3.50;91.40
41664;DHT22;27353;50.906;7.248;2024-01-10T00:35:57;-3.50;92.10
41664;DHT22;27353;50.906;7.248;2024-01-10T00:38:23;-3.50;92.40
41664;DHT22;27353;50.906;7.248;2024-01-10T00:40:48;-3.60;92.00
41664;DHT22;27353;50.906;7.248;2024-01-10T00:43:14;-3.60;92.00
41664;DHT22;27353;50.906;7.248;2024-01-10T00:45:40;-3.60;92.30
41664;DHT22;27353;50.906;7.248;2024-01-10T00:48:05;-3.70;92.00
41664;DHT22;27353;50.906;7.248;2024-01-10T00:50:31;-3.60;91.80
41664;DHT22;27353;50.906;7.248;2024-01-10T00:52:56;-3.60;92.10
41664;DHT22;27353;50.906;7.248;2024-01-10T00:55:22;-3.60;91.70
41664;DHT22;27353;50.906;7.248;2024-01-10T00:57:48;-3.60;91.80
41664;DHT22;27353;50.906;7.248;2024-01-10T01:00:15;-3.60;91.30
41664;DHT22;27353;50.906;7.248;2024-01-10T01:02:40;-3.60;91.60
41664;DHT22;27353;50.906;7.248;2024-01-10T01:05:06;-3.60;91.90
41664;DHT22;27353;50.906;7.248;2024-01-10T01:07:35;-3.60;92.20
41664;DHT22;27353;50.906;7.248;2024-01-10T01:10:01;-3.60;92.50
41664;DHT22;27353;50.906;7.248;2024-01-10T01:12:27;-3.60;92.70
41664;DHT22;27353;50.906;7.248;2024-01-10T01:14:53;-3.60;92.80
41664;DHT22;27353;50.906;7.248;2024-01-10T01:17:18;-3.60;93.00
41664;DHT22;27353;50.906;7.248;2024-01-10T01:19:44;-3.60;92.50
41664;DHT22;27353;50.906;7.248;2024-01-10T01:22:09;-3.60;92.20
41664;DHT22;27353;50.906;7.248;2024-01-10T01:24:35;-3.60;92.50
41664;DHT22;27353;50.906;7.248;2024-01-10T01:27:02;-3.60;92.30
41664;DHT22;27353;50.906;7.248;2024-01-10T01:29:27;-3.60;92.50
41664;DHT22;27353;50.906;7.248;2024-01-10T01:31:54;-3.60;92.40
41664;DHT22;27353;50.906;7.248;2024-01-10T01:34:20;-3.50;92.30
41664;DHT22;27353;50.906;7.248;2024-01-10T01:36:45;-3.50;92.40
41664;DHT22;27353;50.906;7.248;2024-01-10T01:39:11;-3.50;92.30
41664;DHT22;27353;50.906;7.248;2024-01-10T01:41:39;-3.50;92.60
41664;DHT22;27353;50.906;7.248;2024-01-10T01:44:04;-3.60;92.60
41664;DHT22;27353;50.906;7.248;2024-01-10T01:46:31;-3.60;92.80
41664;DHT22;27353;50.906;7.248;2024-01-10T01:48:57;-3.60;92.80
41664;DHT22;27353;50.906;7.248;2024-01-10T01:51:22;-3.70;93.30
41664;DHT22;27353;50.906;7.248;2024-01-10T01:53:49;-3.70;95.30
41664;DHT22;27353;50.906;7.248;2024-01-10T01:56:15;-3.80;94.60
41664;DHT22;27353;50.906;7.248;2024-01-10T01:58:43;-3.80;93.30
41664;DHT22;27353;50.906;7.248;2024-01-10T02:01:10;-3.80;93.40
41664;DHT22;27353;50.906;7.248;2024-01-10T02:03:37;-3.70;91.70
41664;DHT22;27353;50.906;7.248;2024-01-10T02:06:02;-3.60;92.20
41664;DHT22;27353;50.906;7.248;2024-01-10T02:08:32;-3.60;91.50
41664;DHT22;27353;50.906;7.248;2024-01-10T02:10:58;-3.60;91.90
41664;DHT22;27353;50.906;7.248;2024-01-10T02:13:24;-3.70;92.30
41664;DHT22;27353;50.906;7.248;2024-01-10T02:15:50;-3.70;93.00
41664;DHT22;27353;50.906;7.248;2024-01-10T02:18:16;-3.80;92.00
41664;DHT22;27353;50.906;7.248;2024-01-10T02:20:45;-3.80;91.40
41664;DHT22;27353;50.906;7.248;2024-01-10T02:23:11;-3.80;91.30
41664;DHT22;27353;50.906;7.248;2024-01-10T02:25:38;-3.80;93.00
41664;DHT22;27353;50.906;7.248;2024-01-10T02:28:04;-4.00;93.20
41664;DHT22;27353;50.906;7.248;2024-01-10T02:30:30;-4.00;93.60
41664;DHT22;27353;50.906;7.248;2024-01-10T02:32:55;-4.10;93.70
41664;DHT22;27353;50.906;7.248;2024-01-10T02:35:21;-4.10;94.00
41664;DHT22;27353;50.906;7.248;2024-01-10T02:37:47;-4.00;94.20
41664;DHT22;27353;50.906;7.248;2024-01-10T02:40:15;-4.10;94.20
41664;DHT22;27353;50.906;7.248;2024-01-10T02:42:41;-4.10;94.30
41664;DHT22;27353;50.906;7.248;2024-01-10T02:45:07;-4.10;94.00
41664;DHT22;27353;50.906;7.248;2024-01-10T02:47:33;-4.00;94.00
41664;DHT22;27353;50.906;7.248;2024-01-10T02:49:58;-4.00;92.60
41664;DHT22;27353;50.906;7.248;2024-01-10T02:52:24;-3.90;92.20
41664;DHT22;27353;50.906;7.248;2024-01-10T02:54:50;-3.90;93.30
41664;DHT22;27353;50.906;7.248;2024-01-10T02:57:15;-3.90;93.00
41664;DHT22;27353;50.906;7.248;2024-01-10T02:59:41;-3.90;94.40
41664;DHT22;27353;50.906;7.248;2024-01-10T03:02:06;-4.00;94.50
41664;DHT22;27353;50.906;7.248;2024-01-10T03:04:32;-4.00;94.50
41664;DHT22;27353;50.906;7.248;2024-01-10T03:06:58;-4.10;95.30
41664;DHT22;27353;50.906;7.248;2024-01-10T03:09:23;-4.20;95.20
41664;DHT22;27353;50.906;7.248;2024-01-10T03:11:49;-4.20;94.50
41664;DHT22;27353;50.906;7.248;2024-01-10T03:14:14;-4.20;94.70
41664;DHT22;27353;50.906;7.248;2024-01-10T03:16:40;-4.20;95.20
41664;DHT22;27353;50.906;7.248;2024-01-10T03:19:06;-4.20;94.80
41664;DHT22;27353;50.906;7.248;2024-01-10T03:21:32;-4.30;95.00
41664;DHT22;27353;50.906;7.248;2024-01-10T03:23:59;-4.30;94.80
41664;DHT22;27353;50.906;7.248;2024-01-10T03:26:25;-4.30;94.90
41664;DHT22;27353;50.906;7.248;2024-01-10T03:28:51;-4.30;95.20
41664;DHT22;27353;50.906;7.248;2024-01-10T03:31:17;-4.30;95.20
41664;DHT22;27353;50.906;7.248;2024-01-10T03:33:43;-4.30;94.60
41664;DHT22;27353;50.906;7.248;2024-01-10T03:36:11;-4.30;94.70
41664;DHT22;27353;50.906;7.248;2024-01-10T03:38:37;-4.30;94.50
41664;DHT22;27353;50.906;7.248;2024-01-10T03:41:03;-4.30;95.20
41664;DHT22;27353;50.906;7.248;2024-01-10T03:43:29;-4.30;96.10
41664;DHT22;27353;50.906;7.248;2024-01-10T03:45:54;-4.40;96.40
41664;DHT22;27353;50.906;7.248;2024-01-10T03:48:20;-4.40;96.20
41664;DHT22;27353;50.906;7.248;2024-01-10T03:50:46;-4.50;97.70
41664;DHT22;27353;50.906;7.248;2024-01-10T03:53:11;-4.50;98.40
41664;DHT22;27353;50.906;7.248;2024-01-10T03:55:37;-4.50;98.70
41664;DHT22;27353;50.906;7.248;2024-01-10T03:58:04;-4.60;98.80
41664;DHT22;27353;50.906;7.248;2024-01-10T04:00:30;-4.70;98.90
41664;DHT22;27353;50.906;7.248;2024-01-10T04:02:56;-4.70;99.40
41664;DHT22;27353;50.906;7.248;2024-01-10T04:05:21;-4.70;99.30
41664;DHT22;27353;50.906;7.248;2024-01-10T04:07:47;-4.80;99.90
41664;DHT22;27353;50.906;7.248;2024-01-10T04:10:13;-4.80;99.30
41664;DHT22;27353;50.906;7.248;2024-01-10T04:12:45;-4.90;99.90
41664;DHT22;27353;50.906;7.248;2024-01-10T04:15:11;-4.90;99.90
41664;DHT22;27353;50.906;7.248;2024-01-10T04:17:37;-5.00;99.90
41664;DHT22;27353;50.906;7.248;2024-01-10T04:20:03;-5.00;99.90
41664;DHT22;27353;50.906;7.248;2024-01-10T04:22:29;-5.00;99.90
41664;DHT22;27353;50.906;7.248;2024-01-10T04:24:59;-5.00;99.90
41664;DHT22;27353;50.906;7.248;2024-01-10T04:27:26;-5.10;99.90
41664;DHT22;27353;50.906;7.248;2024-01-10T04:29:51;-5.10;99.90
41664;DHT22;27353;50.906;7.248;2024-01-10T04:32:17;-5.10;99.90
41664;DHT22;27353;50.906;7.248;2024-01-10T04:34:42;-5.10;99.90
41664;DHT22;27353;50.906;7.248;2024-01-10T04:37:08;-5.10;99.90
41664;DHT22;27353;50.906;7.248;2024-01-10T04:39:34;-5.10;99.90
41664;DHT22;27353;50.906;7.248;2024-01-10T04:42:00;-5.10;99.90
41664;DHT22;27353;50.906;7.248;2024-01-10T04:44:25;-5.00;99.90
41664;DHT22;27353;50.906;7.248;2024-01-10T04:46:51;-5.00;99.90
41664;DHT22;27353;50.906;7.248;2024-01-10T04:49:17;-5.00;99.90
41664;DHT22;27353;50.906;7.248;2024-01-10T04:51:42;-5.00;99.90
41664;DHT22;27353;50.906;7.248;2024-01-10T04:54:08;-5.00;99.90
41664;DHT22;27353;50.906;7.248;2024-01-10T04:56:34;-5.00;99.90
41664;DHT22;27353;50.906;7.248;2024-01-10T04:59:02;-5.00;99.90
41664;DHT22;27353;50.906;7.248;2024-01-10T05:01:27;-5.00;99.90
41664;DHT22;27353;50.906;7.248;2024-01-10T05:03:53;-5.10;99.90
41664;DHT22;27353;50.906;7.248;2024-01-10T05:06:19;-5.10;99.90
41664;DHT22;27353;50.906;7.248;2024-01-10T05:08:44;-5.10;99.90
41664;DHT22;27353;50.906;7.248;2024-01-10T05:11:10;-5.10;99.90
41664;DHT22;27353;50.906;7.248;2024-01-10T05:13:36;-5.10;99.90
41664;DHT22;27353;50.906;7.248;2024-01-10T05:16:02;-5.20;99.90
41664;DHT22;27353;50.906;7.248;2024-01-10T05:18:28;-5.20;99.90
41664;DHT22;27353;50.906;7.248;2024-01-10T05:20:53;-5.30;99.90
41664;DHT22;27353;50.906;7.248;2024-01-10T05:23:19;-5.30;99.90
41664;DHT22;27353;50.906;7.248;2024-01-10T05:25:45;-5.20;99.90
41664;DHT22;27353;50.906;7.248;2024-01-10T05:28:10;-5.20;99.90
41664;DHT22;27353;50.906;7.248;2024-01-10T05:30:36;-5.20;99.90
41664;DHT22;27353;50.906;7.248;2024-01-10T05:33:02;-5.20;99.90
41664;DHT22;27353;50.906;7.248;2024-01-10T05:35:27;-5.30;99.90
41664;DHT22;27353;50.906;7.248;2024-01-10T05:37:54;-5.30;99.90
41664;DHT22;27353;50.906;7.248;2024-01-10T05:40:20;-5.30;99.90
41664;DHT22;27353;50.906;7.248;2024-01-10T05:42:46;-5.40;99.90
41664;DHT22;27353;50.906;7.248;2024-01-10T05:45:11;-5.40;99.90
41664;DHT22;27353;50.906;7.248;2024-01-10T05:47:37;-5.40;99.90
41664;DHT22;27353;50.906;7.248;2024-01-10T05:50:03;-5.40;99.90
41664;DHT22;27353;50.906;7.248;2024-01-10T05:52:32;-5.40;99.90
41664;DHT22;27353;50.906;7.248;2024-01-10T05:54:59;-5.40;99.90
41664;DHT22;27353;50.906;7.248;2024-01-10T05:57:27;-5.40;99.90
41664;DHT22;27353;50.906;7.248;2024-01-10T05:59:52;-5.30;99.90
41664;DHT22;27353;50.906;7.248;2024-01-10T06:02:21;-5.40;99.90
41664;DHT22;27353;50.906;7.248;2024-01-10T06:04:46;-5.30;99.90
41664;DHT22;27353;50.906;7.248;2024-01-10T06:07:12;-5.30;99.90
41664;DHT22;27353;50.906;7.248;2024-01-10T06:09:38;-5.30;99.90
41664;DHT22;27353;50.906;7.248;2024-01-10T06:12:05;-5.30;99.90
41664;DHT22;27353;50.906;7.248;2024-01-10T06:14:32;-5.20;99.90
41664;DHT22;27353;50.906;7.248;2024-01-10T06:16:57;-5.20;99.90
41664;DHT22;27353;50.906;7.248;2024-01-10T06:19:25;-5.20;99.90
41664;DHT22;27353;50.906;7.248;2024-01-10T06:21:50;-5.20;99.90
41664;DHT22;27353;50.906;7.248;2024-01-10T06:24:17;-5.10;99.90
41664;DHT22;27353;50.906;7.248;2024-01-10T06:26:43;-5.10;99.90
41664;DHT22;27353;50.906;7.248;2024-01-10T06:29:09;-5.10;99.90
41664;DHT22;27353;50.906;7.248;2024-01-10T06:31:34;-5.10;99.90
41664;DHT22;27353;50.906;7.248;2024-01-10T06:34:00;-5.10;99.90
41664;DHT22;27353;50.906;7.248;2024-01-10T06:36:25;-5.20;99.90
41664;DHT22;27353;50.906;7.248;2024-01-10T06:38:51;-5.20;99.90
41664;DHT22;27353;50.906;7.248;2024-01-10T06:41:17;-5.20;99.90
41664;DHT22;27353;50.906;7.248;2024-01-10T06:43:42;-5.10;99.90
41664;DHT22;27353;50.906;7.248;2024-01-10T06:46:08;-5.20;99.90
41664;DHT22;27353;50.906;7.248;2024-01-10T06:48:35;-5.20;99.90
41664;DHT22;27353;50.906;7.248;2024-01-10T06:51:01;-5.20;99.90
41664;DHT22;27353;50.906;7.248;2024-01-10T06:53:26;-5.20;99.90
41664;DHT22;27353;50.906;7.248;2024-01-10T06:55:52;-5.20;99.90
41664;DHT22;27353;50.906;7.248;2024-01-10T06:58:17;-5.20;99.90
41664;DHT22;27353;50.906;7.248;2024-01-10T07:00:43;-5.10;99.90
41664;DHT22;27353;50.906;7.248;2024-01-10T07:03:09;-5.10;99.90
41664;DHT22;27353;50.906;7.248;2024-01-10T07:05:34;-5.00;99.90
41664;DHT22;27353;50.906;7.248;2024-01-10T07:08:00;-5.00;99.90
41664;DHT22;27353;50.906;7.248;2024-01-10T07:10:28;-5.00;99.90
41664;DHT22;27353;50.906;7.248;2024-01-10T07:12:55;-5.00;99.90
41664;DHT22;27353;50.906;7.248;2024-01-10T07:15:21;-5.00;99.90
41664;DHT22;27353;50.906;7.248;2024-01-10T07:17:47;-5.00;99.90
41664;DHT22;27353;50.906;7.248;2024-01-10T07:20:13;-5.00;99.90
41664;DHT22;27353;50.906;7.248;2024-01-10T07:22:39;-5.00;99.90
41664;DHT22;27353;50.906;7.248;2024-01-10T07:25:09;-5.00;99.90
41664;DHT22;27353;50.906;7.248;2024-01-10T07:27:35;-5.00;99.90
41664;DHT22;27353;50.906;7.248;2024-01-10T07:30:04;-5.00;99.90
41664;DHT22;27353;50.906;7.248;2024-01-10T07:32:31;-4.90;99.90
41664;DHT22;27353;50.906;7.248;2024-01-10T07:34:56;-4.90;99.90
41664;DHT22;27353;50.906;7.248;2024-01-10T07:37:23;-4.80;99.90
41664;DHT22;27353;50.906;7.248;2024-01-10T07:39:49;-4.80;99.90
41664;DHT22;27353;50.906;7.248;2024-01-10T07:42:15;-4.80;99.90
41664;DHT22;27353;50.906;7.248;2024-01-10T07:44:43;-4.80;99.90
41664;DHT22;27353;50.906;7.248;2024-01-10T07:47:09;-4.80;99.90
41664;DHT22;27353;50.906;7.248;2024-01-10T07:49:35;-4.70;99.90
41664;DHT22;27353;50.906;7.248;2024-01-10T07:52:03;-4.70;99.90
41664;DHT22;27353;50.906;7.248;2024-01-10T07:54:29;-4.70;99.90
41664;DHT22;27353;50.906;7.248;2024-01-10T07:56:57;-4.70;99.90
41664;DHT22;27353;50.906;7.248;2024-01-10T07:59:23;-4.70;99.90
41664;DHT22;27353;50.906;7.248;2024-01-10T08:01:56;-4.70;99.90
41664;DHT22;27353;50.906;7.248;2024-01-10T08:04:27;-4.60;99.90
41664;DHT22;27353;50.906;7.248;2024-01-10T08:06:53;-4.60;99.90
41664;DHT22;27353;50.906;7.248;2024-01-10T08:09:19;-4.50;99.90
41664;DHT22;27353;50.906;7.248;2024-01-10T08:11:45;-4.50;99.90
41664;DHT22;27353;50.906;7.248;2024-01-10T08:14:11;-4.40;99.90
41664;DHT22;27353;50.906;7.248;2024-01-10T08:16:37;-4.40;99.90
41664;DHT22;27353;50.906;7.248;2024-01-10T08:19:03;-4.40;99.90
41664;DHT22;27353;50.906;7.248;2024-01-10T08:21:28;-4.40;99.90
41664;DHT22;27353;50.906;7.248;2024-01-10T08:23:54;-4.30;99.90
41664;DHT22;27353;50.906;7.248;2024-01-10T08:26:19;-4.30;99.90
41664;DHT22;27353;50.906;7.248;2024-01-10T08:28:45;-4.20;99.90
41664;DHT22;27353;50.906;7.248;2024-01-10T08:31:11;-4.20;99.90
41664;DHT22;27353;50.906;7.248;2024-01-10T08:33:38;-4.00;99.90
41664;DHT22;27353;50.906;7.248;2024-01-10T08:36:04;-4.10;99.90
41664;DHT22;27353;50.906;7.248;2024-01-10T08:38:30;-4.00;99.90
41664;DHT22;27353;50.906;7.248;2024-01-10T08:40:56;-4.00;99.90
41664;DHT22;27353;50.906;7.248;2024-01-10T08:43:22;-3.90;99.90
41664;DHT22;27353;50.906;7.248;2024-01-10T08:45:47;-3.90;99.90
41664;DHT22;27353;50.906;7.248;2024-01-10T08:48:13;-4.00;99.90
41664;DHT22;27353;50.906;7.248;2024-01-10T08:50:38;-4.00;99.90
41664;DHT22;27353;50.906;7.248;2024-01-10T08:53:05;-4.00;99.90
41664;DHT22;27353;50.906;7.248;2024-01-10T08:55:34;-3.90;99.90
41664;DHT22;27353;50.906;7.248;2024-01-10T08:58:05;-3.80;99.90
41664;DHT22;27353;50.906;7.248;2024-01-10T09:00:32;-3.60;99.90
41664;DHT22;27353;50.906;7.248;2024-01-10T09:02:57;-3.40;99.90
41664;DHT22;27353;50.906;7.248;2024-01-10T09:05:23;-3.30;99.90
41664;DHT22;27353;50.906;7.248;2024-01-10T09:07:49;-3.20;99.90
41664;DHT22;27353;50.906;7.248;2024-01-10T09:10:15;-3.10;99.90
41664;DHT22;27353;50.906;7.248;2024-01-10T09:12:41;-3.10;99.90
41664;DHT22;27353;50.906;7.248;2024-01-10T09:15:11;-3.10;99.90
41664;DHT22;27353;50.906;7.248;2024-01-10T09:17:39;-3.00;99.90
41664;DHT22;27353;50.906;7.248;2024-01-10T09:20:05;-3.00;99.90
41664;DHT22;27353;50.906;7.248;2024-01-10T09:22:31;-2.90;99.90
41664;DHT22;27353;50.906;7.248;2024-01-10T09:24:57;-2.80;99.90
41664;DHT22;27353;50.906;7.248;2024-01-10T09:27:29;-2.60;99.90
41664;DHT22;27353;50.906;7.248;2024-01-10T09:29:55;-2.60;99.90
41664;DHT22;27353;50.906;7.248;2024-01-10T09:32:20;-2.50;99.90
41664;DHT22;27353;50.906;7.248;2024-01-10T09:34:46;-2.30;99.90
41664;DHT22;27353;50.906;7.248;2024-01-10T09:37:12;-2.20;99.90
41664;DHT22;27353;50.906;7.248;2024-01-10T09:39:37;-2.30;99.90
41664;DHT22;27353;50.906;7.248;2024-01-10T09:42:04;-2.20;99.90
41664;DHT22;27353;50.906;7.248;2024-01-10T09:44:29;-2.10;99.90
41664;DHT22;27353;50.906;7.248;2024-01-10T09:46:55;-1.90;99.90
41664;DHT22;27353;50.906;7.248;2024-01-10T09:49:21;-1.70;99.90
41664;DHT22;27353;50.906;7.248;2024-01-10T09:51:50;-1.60;99.90
41664;DHT22;27353;50.906;7.248;2024-01-10T09:54:18;-1.10;99.90
41664;DHT22;27353;50.906;7.248;2024-01-10T09:56:45;-0.70;99.80
41664;DHT22;27353;50.906;7.248;2024-01-10T09:59:12;-0.50;99.10
41664;DHT22;27353;50.906;7.248;2024-01-10T10:01:38;-0.60;98.70
41664;DHT22;27353;50.906;7.248;2024-01-10T10:04:05;-0.90;99.30
41664;DHT22;27353;50.906;7.248;2024-01-10T10:06:34;-0.60;99.30
41664;DHT22;27353;50.906;7.248;2024-01-10T10:09:00;-0.70;98.40
41664;DHT22;27353;50.906;7.248;2024-01-10T10:11:25;-0.30;99.00
41664;DHT22;27353;50.906;7.248;2024-01-10T10:13:51;0.20;97.70
41664;DHT22;27353;50.906;7.248;2024-01-10T10:16:24;0.60;97.80
41664;DHT22;27353;50.906;7.248;2024-01-10T10:18:52;1.90;95.20
41664;DHT22;27353;50.906;7.248;2024-01-10T10:21:24;2.90;93.90
41664;DHT22;27353;50.906;7.248;2024-01-10T10:24:02;2.50;93.80
41664;DHT22;27353;50.906;7.248;2024-01-10T10:26:33;2.50;93.30
41664;DHT22;27353;50.906;7.248;2024-01-10T10:29:00;2.10;94.00
41664;DHT22;27353;50.906;7.248;2024-01-10T10:31:26;1.60;94.30
41664;DHT22;27353;50.906;7.248;2024-01-10T10:33:52;1.50;94.30
41664;DHT22;27353;50.906;7.248;2024-01-10T10:36:20;1.30;94.70
41664;DHT22;27353;50.906;7.248;2024-01-10T10:38:47;1.20;95.30
41664;DHT22;27353;50.906;7.248;2024-01-10T10:41:16;1.20;95.20
41664;DHT22;27353;50.906;7.248;2024-01-10T10:43:43;0.40;95.40
41664;DHT22;27353;50.906;7.248;2024-01-10T10:46:10;0.20;96.60
41664;DHT22;27353;50.906;7.248;2024-01-10T10:48:38;0.20;97.10
41664;DHT22;27353;50.906;7.248;2024-01-10T10:53:55;0.70;96.60
41664;DHT22;27353;50.906;7.248;2024-01-10T10:56:21;1.60;95.00
41664;DHT22;27353;50.906;7.248;2024-01-10T10:58:49;2.70;93.90
41664;DHT22;27353;50.906;7.248;2024-01-10T11:01:16;3.90;92.80
41664;DHT22;27353;50.906;7.248;2024-01-10T11:03:42;4.60;91.00
41664;DHT22;27353;50.906;7.248;2024-01-10T11:06:10;4.90;90.10
41664;DHT22;27353;50.906;7.248;2024-01-10T11:08:36;5.00;89.80
41664;DHT22;27353;50.906;7.248;2024-01-10T11:11:07;4.50;87.40
41664;DHT22;27353;50.906;7.248;2024-01-10T11:24:59;2.20;92.10
41664;DHT22;27353;50.906;7.248;2024-01-10T11:27:26;1.90;93.00
41664;DHT22;27353;50.906;7.248;2024-01-10T11:29:52;1.50;93.30
41664;DHT22;27353;50.906;7.248;2024-01-10T11:32:22;1.80;93.50
41664;DHT22;27353;50.906;7.248;2024-01-10T11:35:04;1.40;93.00
41664;DHT22;27353;50.906;7.248;2024-01-10T11:37:41;1.50;94.30
41664;DHT22;27353;50.906;7.248;2024-01-10T11:40:08;1.30;93.80
41664;DHT22;27353;50.906;7.248;2024-01-10T11:42:44;1.20;94.10
41664;DHT22;27353;50.906;7.248;2024-01-10T11:47:59;1.50;94.70
41664;DHT22;27353;50.906;7.248;2024-01-10T11:50:25;1.70;94.60
41664;DHT22;27353;50.906;7.248;2024-01-10T11:52:54;1.70;94.40
41664;DHT22;27353;50.906;7.248;2024-01-10T11:58:14;2.10;93.20
41664;DHT22;27353;50.906;7.248;2024-01-10T12:00:43;2.30;93.20
41664;DHT22;27353;50.906;7.248;2024-01-10T12:03:12;2.70;94.10
41664;DHT22;27353;50.906;7.248;2024-01-10T12:05:38;3.20;92.90
41664;DHT22;27353;50.906;7.248;2024-01-10T12:08:08;3.10;92.60
41664;DHT22;27353;50.906;7.248;2024-01-10T12:10:33;3.10;91.30
41664;DHT22;27353;50.906;7.248;2024-01-10T12:13:03;2.80;92.10
41664;DHT22;27353;50.906;7.248;2024-01-10T12:15:29;3.00;92.30
41664;DHT22;27353;50.906;7.248;2024-01-10T12:17:55;3.10;92.00
41664;DHT22;27353;50.906;7.248;2024-01-10T12:20:21;3.50;93.00
41664;DHT22;27353;50.906;7.248;2024-01-10T12:22:47;3.80;91.80
41664;DHT22;27353;50.906;7.248;2024-01-10T12:25:12;3.50;91.60
41664;DHT22;27353;50.906;7.248;2024-01-10T12:27:38;3.50;91.50
41664;DHT22;27353;50.906;7.248;2024-01-10T12:30:05;3.00;92.50
41664;DHT22;27353;50.906;7.248;2024-01-10T12:32:31;2.50;92.50
41664;DHT22;27353;50.906;7.248;2024-01-10T12:35:03;2.50;93.70
41664;DHT22;27353;50.906;7.248;2024-01-10T12:37:30;2.00;93.40
41664;DHT22;27353;50.906;7.248;2024-01-10T12:39:56;2.00;94.10
41664;DHT22;27353;50.906;7.248;2024-01-10T12:42:22;1.80;93.70
41664;DHT22;27353;50.906;7.248;2024-01-10T12:44:49;1.90;94.50
41664;DHT22;27353;50.906;7.248;2024-01-10T12:47:21;1.90;94.20
41664;DHT22;27353;50.906;7.248;2024-01-10T12:49:48;1.70;95.40
41664;DHT22;27353;50.906;7.248;2024-01-10T12:52:13;1.50;95.10
41664;DHT22;27353;50.906;7.248;2024-01-10T12:54:39;1.40;94.40
41664;DHT22;27353;50.906;7.248;2024-01-10T12:57:05;1.00;94.70
41664;DHT22;27353;50.906;7.248;2024-01-10T12:59:32;1.10;95.80
41664;DHT22;27353;50.906;7.248;2024-01-10T13:01:58;1.00;95.40
41664;DHT22;27353;50.906;7.248;2024-01-10T13:04:23;1.00;95.50
41664;DHT22;27353;50.906;7.248;2024-01-10T13:06:49;1.10;95.40
41664;DHT22;27353;50.906;7.248;2024-01-10T13:09:15;1.10;95.60
41664;DHT22;27353;50.906;7.248;2024-01-10T13:11:41;1.10;95.60
41664;DHT22;27353;50.906;7.248;2024-01-10T13:14:06;1.00;95.60
41664;DHT22;27353;50.906;7.248;2024-01-10T13:16:32;0.90;95.80
41664;DHT22;27353;50.906;7.248;2024-01-10T13:18:58;0.80;95.70
41664;DHT22;27353;50.906;7.248;2024-01-10T13:21:25;0.80;95.80
41664;DHT22;27353;50.906;7.248;2024-01-10T13:23:51;0.80;96.40
41664;DHT22;27353;50.906;7.248;2024-01-10T13:26:17;0.80;96.40
41664;DHT22;27353;50.906;7.248;2024-01-10T13:28:43;0.80;96.70
41664;DHT22;27353;50.906;7.248;2024-01-10T13:31:09;0.90;97.10
41664;DHT22;27353;50.906;7.248;2024-01-10T13:33:35;0.80;96.70
41664;DHT22;27353;50.906;7.248;2024-01-10T13:36:00;0.80;96.60
41664;DHT22;27353;50.906;7.248;2024-01-10T13:38:26;0.80;96.50
41664;DHT22;27353;50.906;7.248;2024-01-10T13:40:52;0.80;97.00
41664;DHT22;27353;50.906;7.248;2024-01-10T13:43:18;0.80;96.40
41664;DHT22;27353;50.906;7.248;2024-01-10T13:45:44;0.80;96.50
41664;DHT22;27353;50.906;7.248;2024-01-10T13:48:09;0.80;96.50
41664;DHT22;27353;50.906;7.248;2024-01-10T13:50:36;1.00;97.10
41664;DHT22;27353;50.906;7.248;2024-01-10T13:53:01;1.10;96.70
41664;DHT22;27353;50.906;7.248;2024-01-10T13:55:29;1.10;96.90
41664;DHT22;27353;50.906;7.248;2024-01-10T13:57:55;1.00;96.10
41664;DHT22;27353;50.906;7.248;2024-01-10T14:00:22;1.00;97.40
41664;DHT22;27353;50.906;7.248;2024-01-10T14:02:47;0.90;96.80
41664;DHT22;27353;50.906;7.248;2024-01-10T14:05:13;0.90;97.20
41664;DHT22;27353;50.906;7.248;2024-01-10T14:07:39;0.90;97.10
41664;DHT22;27353;50.906;7.248;2024-01-10T14:10:05;0.90;97.50
41664;DHT22;27353;50.906;7.248;2024-01-10T14:12:31;1.00;97.40
41664;DHT22;27353;50.906;7.248;2024-01-10T14:14:57;1.00;96.60
41664;DHT22;27353;50.906;7.248;2024-01-10T14:17:25;1.00;97.30
41664;DHT22;27353;50.906;7.248;2024-01-10T14:19:53;0.90;96.90
41664;DHT22;27353;50.906;7.248;2024-01-10T14:22:19;0.90;97.10
41664;DHT22;27353;50.906;7.248;2024-01-10T14:24:45;0.80;97.10
41664;DHT22;27353;50.906;7.248;2024-01-10T14:27:11;0.80;97.20
41664;DHT22;27353;50.906;7.248;2024-01-10T14:29:36;0.80;97.20
41664;DHT22;27353;50.906;7.248;2024-01-10T14:32:02;0.70;97.10
41664;DHT22;27353;50.906;7.248;2024-01-10T14:34:28;0.70;98.20
41664;DHT22;27353;50.906;7.248;2024-01-10T14:36:54;0.70;97.70
41664;DHT22;27353;50.906;7.248;2024-01-10T14:39:19;0.70;98.40
41664;DHT22;27353;50.906;7.248;2024-01-10T14:41:46;0.70;97.90
41664;DHT22;27353;50.906;7.248;2024-01-10T14:44:12;0.70;97.60
41664;DHT22;27353;50.906;7.248;2024-01-10T14:46:37;0.70;97.90
41664;DHT22;27353;50.906;7.248;2024-01-10T14:49:04;0.70;97.80
41664;DHT22;27353;50.906;7.248;2024-01-10T14:51:29;0.70;98.30
41664;DHT22;27353;50.906;7.248;2024-01-10T14:53:55;0.70;99.00
41664;DHT22;27353;50.906;7.248;2024-01-10T14:56:20;0.70;99.00
41664;DHT22;27353;50.906;7.248;2024-01-10T14:58:46;0.70;97.80
41664;DHT22;27353;50.906;7.248;2024-01-10T15:01:12;0.70;98.60
41664;DHT22;27353;50.906;7.248;2024-01-10T15:03:39;0.70;98.10
41664;DHT22;27353;50.906;7.248;2024-01-10T15:06:05;0.70;98.10
41664;DHT22;27353;50.906;7.248;2024-01-10T15:08:31;0.70;98.00
41664;DHT22;27353;50.906;7.248;2024-01-10T15:10:59;0.60;98.00
41664;DHT22;27353;50.906;7.248;2024-01-10T15:13:25;0.70;98.00
41664;DHT22;27353;50.906;7.248;2024-01-10T15:15:50;0.60;98.80
41664;DHT22;27353;50.906;7.248;2024-01-10T15:18:16;0.60;98.20
41664;DHT22;27353;50.906;7.248;2024-01-10T15:20:42;0.60;98.20
41664;DHT22;27353;50.906;7.248;2024-01-10T15:23:08;0.60;98.60
41664;DHT22;27353;50.906;7.248;2024-01-10T15:25:34;0.50;99.70
41664;DHT22;27353;50.906;7.248;2024-01-10T15:28:01;0.40;99.90
41664;DHT22;27353;50.906;7.248;2024-01-10T15:30:27;0.30;99.90
41664;DHT22;27353;50.906;7.248;2024-01-10T15:32:52;0.30;99.90
41664;DHT22;27353;50.906;7.248;2024-01-10T15:35:18;0.20;99.90
41664;DHT22;27353;50.906;7.248;2024-01-10T15:37:44;0.00;99.90
41664;DHT22;27353;50.906;7.248;2024-01-10T15:40:10;-0.10;99.90
41664;DHT22;27353;50.906;7.248;2024-01-10T15:42:37;-0.10;99.90
41664;DHT22;27353;50.906;7.248;2024-01-10T15:45:03;-0.20;99.90
41664;DHT22;27353;50.906;7.248;2024-01-10T15:47:31;-0.20;99.90
41664;DHT22;27353;50.906;7.248;2024-01-10T15:49:56;-0.20;99.90